Time;durP1;ratioP1;P1;durP2;ratioP2;P2;SDS_P1;SDS_P2;PMS_P1;PMS_P2;Temp;Humidity;BMP_temperature;BMP_pressure;BME280_temperature;BME280_humidity;BME280_pressure;Samples;Min_cycle;Max_cycle;Signal;HPM_P1;HPM_P2
2022/02/10 00:15:57;;;;;;;17.53;10.63;;;8.70;1.00;;;;;;5112178;28;20187;-73
2022/02/10 00:18:33;;;;;;;16.77;10.17;;;8.70;1.00;;;;;;5118624;27;20200;-73
2022/02/10 00:21:04;;;;;;;19.57;10.40;;;8.60;16.10;;;;;;5115069;28;20654;-72
2022/02/10 00:23:48;;;;;;;16.50;9.73;;;8.70;1.00;;;;;;5115277;28;20309;-73
2022/02/10 00:34:47;;;;;;;13.10;8.03;;;8.70;1.00;;;;;;5075020;28;20339;-73
2022/02/10 00:37:18;;;;;;;16.50;8.67;;;8.70;1.00;;;;;;5102833;28;20201;-73
2022/02/10 00:42:35;;;;;;;17.63;9.43;;;8.70;1.00;;;;;;5093393;28;20223;-73
2022/02/10 00:45:03;;;;;;;14.27;7.53;;;8.60;1.00;;;;;;5114229;28;20219;-73
2022/02/10 00:47:41;;;;;;;12.60;7.40;;;8.70;1.00;;;;;;5124771;27;20254;-73
2022/02/10 00:50:09;;;;;;;13.40;7.47;;;8.60;1.00;;;;;;5123607;27;20240;-73
2022/02/10 00:52:41;;;;;;;9.60;6.60;;;8.60;1.00;;;;;;5113462;28;20238;-72
2022/02/10 00:55:10;;;;;;;14.97;7.17;;;8.60;99.90;;;;;;5114627;28;20216;-73
2022/02/10 00:57:37;;;;;;;10.53;6.43;;;8.60;99.90;;;;;;5112721;28;20550;-73
2022/02/10 01:00:24;;;;;;;12.27;6.67;;;8.60;99.90;;;;;;5113490;27;20209;-72
2022/02/10 01:11:45;;;;;;;8.77;5.60;;;8.50;1.00;;;;;;5114516;27;20934;-73
2022/02/10 01:14:33;;;;;;;10.13;5.73;;;8.40;1.00;;;;;;5114264;28;20250;-74
2022/02/10 01:30:44;;;;;;;8.90;5.30;;;8.50;99.90;;;;;;5114241;27;20203;-73
2022/02/10 01:33:12;;;;;;;9.93;5.73;;;8.40;1.00;;;;;;5112073;28;20231;-73
2022/02/10 01:35:40;;;;;;;9.47;5.53;;;8.40;1.00;;;;;;5112900;27;20216;-73
2022/02/10 01:38:07;;;;;;;7.13;5.30;;;8.40;1.00;;;;;;5113201;28;20197;-73
2022/02/10 01:40:59;;;;;;;9.60;5.37;;;8.30;1.00;;;;;;5113393;27;20205;-73
2022/02/10 02:05:35;;;;;;;6.57;4.80;;;8.30;99.90;;;;;;5110552;28;20242;-73
2022/02/10 02:08:06;;;;;;;8.97;5.30;;;8.20;99.90;;;;;;5111629;28;20681;-73
2022/02/10 02:10:33;;;;;;;8.13;4.90;;;8.20;99.90;;;;;;5113488;28;20211;-73
2022/02/10 02:13:02;;;;;;;9.37;5.40;;;8.20;99.90;;;;;;5112810;27;20605;-73
2022/02/10 02:15:29;;;;;;;8.77;5.10;;;8.20;99.90;;;;;;5112250;28;20708;-73
2022/02/10 02:17:56;;;;;;;9.37;5.00;;;8.20;99.90;;;;;;5126196;27;20686;-73
2022/02/10 02:20:23;;;;;;;7.07;4.90;;;8.20;99.90;;;;;;5131711;27;20606;-73
2022/02/10 02:22:52;;;;;;;8.23;5.43;;;8.20;99.90;;;;;;5111081;28;20715;-73
2022/02/10 02:25:20;;;;;;;7.77;5.33;;;8.20;99.90;;;;;;5104858;28;20258;-72
2022/02/10 02:27:50;;;;;;;7.60;4.97;;;8.20;99.90;;;;;;5112006;28;20639;-73
2022/02/10 02:30:23;;;;;;;8.10;5.40;;;8.20;99.90;;;;;;5112433;28;20216;-73
2022/02/10 02:33:16;;;;;;;8.00;5.83;;;8.20;99.90;;;;;;5111601;28;20642;-73
2022/02/10 02:36:02;;;;;;;7.80;5.40;;;8.20;99.90;;;;;;5110702;28;20203;-73
2022/02/10 02:38:49;;;;;;;11.67;6.43;;;8.20;99.90;;;;;;5111564;28;20274;-73
2022/02/10 03:06:03;;;;;;;12.70;7.80;;;8.30;1.00;;;;;;5127844;27;20292;-73
2022/02/10 03:08:38;;;;;;;14.23;8.30;;;8.30;99.90;;;;;;5124755;27;20208;-73
2022/02/10 03:11:09;;;;;;;15.43;9.20;;;8.30;99.90;;;;;;5130119;27;20215;-72
2022/02/10 03:13:42;;;;;;;12.03;8.00;;;8.40;88.90;;;;;;5111678;27;20201;-73
2022/02/10 03:18:56;;;;;;;14.23;8.80;;;8.40;1.00;;;;;;5076254;28;20200;-73
2022/02/10 04:00:30;;;;;;;10.00;6.57;;;8.70;1.00;;;;;;5111608;28;20211;-73
2022/02/10 04:03:16;;;;;;;10.43;6.33;;;8.70;1.00;;;;;;5111881;28;20670;-72
2022/02/10 04:06:08;;;;;;;9.63;6.07;;;8.60;1.00;;;;;;5111197;28;20201;-73
2022/02/10 04:11:51;;;;;;;10.00;6.40;;;8.70;1.00;;;;;;5101016;28;20204;-73
2022/02/10 04:14:25;;;;;;;9.40;6.50;;;8.60;1.00;;;;;;5111006;28;20228;-72
2022/02/10 04:17:11;;;;;;;10.10;6.37;;;8.60;1.00;;;;;;5111174;28;20261;-72
2022/02/10 04:19:59;;;;;;;10.77;7.03;;;8.50;99.90;;;;;;5110896;28;20212;-73
2022/02/10 04:22:37;;;;;;;9.83;6.93;;;8.40;1.00;;;;;;5111377;28;20709;-73
2022/02/10 04:25:27;;;;;;;9.20;5.97;;;8.40;1.00;;;;;;5111036;28;20231;-73
2022/02/10 04:28:14;;;;;;;9.77;5.93;;;8.40;1.00;;;;;;5111515;28;20212;-72
2022/02/10 04:31:12;;;;;;;12.87;6.53;;;8.40;1.00;;;;;;5111456;28;20295;-72
2022/02/10 04:56:02;;;;;;;8.83;5.00;;;8.30;1.00;;;;;;5048016;28;20693;-73
2022/02/10 05:01:44;;;;;;;8.03;5.00;;;8.30;1.00;;;;;;5102390;27;1416244;-73
2022/02/10 05:04:42;;;;;;;8.70;5.00;;;8.30;1.00;;;;;;5142714;27;20199;-73
2022/02/10 05:07:47;;;;;;;10.53;5.13;;;8.30;1.00;;;;;;5150491;27;20295;-73
2022/02/10 05:14:18;;;;;;;9.50;5.23;;;8.30;1.00;;;;;;5150169;27;20563;-73
2022/02/10 05:16:44;;;;;;;9.07;4.97;;;8.30;1.00;;;;;;5148815;27;20630;-73
2022/02/10 05:22:27;;;;;;;7.53;4.67;;;8.20;1.00;;;;;;5149756;27;20323;-73
2022/02/10 05:35:54;;;;;;;7.43;4.50;;;7.80;1.00;;;;;;5147978;27;20377;-73
2022/02/10 05:38:26;;;;;;;8.67;5.00;;;7.70;1.00;;;;;;5149352;27;20199;-72
2022/02/10 05:43:52;;;;;;;7.80;4.87;;;7.70;1.00;;;;;;5149172;27;20198;-73
2022/02/10 05:54:54;;;;;;;8.57;5.43;;;7.70;1.00;;;;;;5055218;28;20203;-73
2022/02/10 05:57:39;;;;;;;10.07;5.37;;;7.80;1.00;;;;;;5135476;27;20206;-73
2022/02/10 06:52:25;;;;;;;12.23;6.67;;;7.80;1.00;;;;;;5105899;27;20200;-69
2022/02/10 06:55:01;;;;;;;11.07;6.67;;;7.80;1.00;;;;;;5134386;27;20626;-69
2022/02/10 07:06:06;;;;;;;13.43;7.00;;;7.80;1.00;;;;;;5111500;27;20206;-69
2022/02/10 07:11:41;;;;;;;10.87;6.70;;;7.80;1.00;;;;;;5116835;27;20193;-69
2022/02/10 07:56:04;;;;;;;17.90;10.00;;;8.20;1.00;;;;;;5129841;27;20207;-69
2022/02/10 07:58:58;;;;;;;17.07;10.17;;;8.20;1.00;;;;;;5117607;27;20576;-69
2022/02/10 08:57:19;;;;;;;20.00;10.67;;;8.30;1.00;;;;;;5111410;28;20338;-70
2022/02/10 09:00:17;;;;;;;18.30;9.97;;;8.20;1.00;;;;;;5109747;28;20709;-69
2022/02/10 09:05:52;;;;;;;18.10;10.37;;;8.30;1.00;;;;;;5109927;28;20207;-69
2022/02/10 10:00:52;;;;;;;23.00;12.47;;;8.90;1.00;;;;;;5121828;27;1302636;-72
2022/02/10 10:03:24;;;;;;;18.53;11.90;;;8.80;1.00;;;;;;5142567;27;20198;-69
2022/02/10 10:05:58;;;;;;;20.73;11.70;;;8.80;1.00;;;;;;5171014;27;20668;-69
2022/02/10 10:08:38;;;;;;;21.33;12.03;;;8.70;1.00;;;;;;5171187;27;20290;-69
2022/02/10 10:14:15;;;;;;;19.80;11.97;;;8.70;1.00;;;;;;5161595;27;20191;-69
2022/02/10 10:19:47;;;;;;;19.87;12.57;;;8.70;99.90;;;;;;5169691;27;20223;-69
2022/02/10 10:22:28;;;;;;;21.67;12.20;;;8.60;1.00;;;;;;5152202;27;20281;-69
2022/02/10 10:25:24;;;;;;;22.50;12.97;;;8.70;1.00;;;;;;5151658;27;20214;-70
2022/02/10 10:51:09;;;;;;;20.30;12.27;;;8.30;42.10;;;;;;5170076;27;20225;-69
2022/02/10 10:53:44;;;;;;;22.83;12.87;;;8.30;99.90;;;;;;5170189;27;20206;-68
2022/02/10 10:56:15;;;;;;;21.20;12.90;;;8.30;99.90;;;;;;5151179;27;20286;-69
2022/02/10 10:59:08;;;;;;;22.17;14.03;;;8.30;99.90;;;;;;5170113;27;20209;-69
2022/02/10 11:38:16;;;;;;;6.80;4.10;;;7.50;99.90;;;;;;5155339;27;20198;-68
2022/02/10 11:41:25;;;;;;;6.23;3.70;;;7.40;99.90;;;;;;5154852;27;20223;-68
2022/02/10 11:44:14;;;;;;;5.87;3.60;;;7.40;99.90;;;;;;5155305;27;20667;-68
2022/02/10 14:13:31;;;;;;;2.70;1.73;;;7.90;99.90;;;;;;5115324;28;20188;-70
2022/02/10 14:16:25;;;;;;;1.60;1.40;;;7.80;99.90;;;;;;5107782;28;20201;-71
2022/02/10 14:18:56;;;;;;;2.93;1.20;;;7.90;99.90;;;;;;5111338;28;20654;-72
2022/02/10 14:21:31;;;;;;;3.40;1.87;;;7.80;1.00;;;;;;5109750;28;20196;-72
2022/02/10 14:26:49;;;;;;;1.80;1.17;;;7.90;1.00;;;;;;5113170;28;20329;-71
2022/02/10 14:29:17;;;;;;;8.33;2.67;;;7.90;1.00;;;;;;5122208;28;20208;-71
2022/02/10 14:31:45;;;;;;;5.07;2.30;;;7.90;1.00;;;;;;5120043;28;20192;-71
2022/02/10 14:34:19;;;;;;;3.13;1.90;;;7.90;1.00;;;;;;5126789;28;20682;-71
2022/02/10 14:36:48;;;;;;;3.13;1.67;;;7.80;1.00;;;;;;5096091;28;20197;-70
2022/02/10 14:39:26;;;;;;;5.07;2.03;;;7.80;1.00;;;;;;5118431;27;20274;-70
2022/02/10 14:42:30;;;;;;;2.77;1.80;;;7.90;1.00;;;;;;5122236;28;20227;-71
2022/02/10 16:10:57;;;;;;;10.90;2.23;;;7.10;1.00;;;;;;5120375;27;20200;-70
2022/02/10 16:18:52;;;;;;;2.80;1.60;;;7.00;1.00;;;;;;5120926;27;20204;-70
2022/02/10 16:21:30;;;;;;;1.73;1.43;;;7.10;1.00;;;;;;5124589;27;20226;-70
2022/02/10 16:24:03;;;;;;;4.30;2.10;;;7.10;1.00;;;;;;5101547;28;20723;-70
2022/02/10 16:26:41;;;;;;;4.00;2.10;;;7.10;1.00;;;;;;5115850;27;20218;-70
2022/02/10 16:29:15;;;;;;;4.73;2.13;;;7.10;1.00;;;;;;5118802;27;20210;-70
2022/02/10 16:31:42;;;;;;;3.13;2.03;;;7.10;1.00;;;;;;5105275;27;20196;-70
2022/02/10 16:34:11;;;;;;;4.90;2.10;;;7.10;99.90;;;;;;5123508;27;20197;-70
2022/02/10 16:36:41;;;;;;;4.93;2.20;;;7.00;99.90;;;;;;5118429;27;20205;-70
2022/02/10 16:39:10;;;;;;;2.47;2.00;;;7.00;99.90;;;;;;5127629;27;20669;-70
2022/02/10 16:41:37;;;;;;;6.23;2.80;;;7.00;1.00;;;;;;5114944;27;20635;-70
2022/02/10 16:44:04;;;;;;;3.60;2.30;;;7.00;1.00;;;;;;5117848;27;20192;-70
2022/02/10 16:46:32;;;;;;;3.83;2.10;;;7.00;1.00;;;;;;5116647;27;20604;-70
2022/02/10 16:48:59;;;;;;;4.17;2.33;;;7.00;1.00;;;;;;5117763;27;20537;-70
2022/02/10 16:51:27;;;;;;;3.93;2.50;;;7.00;1.00;;;;;;5118893;27;20208;-70
2022/02/10 16:54:04;;;;;;;5.77;3.20;;;7.00;1.00;;;;;;5124562;27;20204;-70
2022/02/10 16:56:46;;;;;;;5.57;2.90;;;7.00;1.00;;;;;;5116916;27;20668;-68
2022/02/10 16:59:27;;;;;;;11.97;3.10;;;6.90;1.00;;;;;;5120999;27;20201;-68
2022/02/10 17:05:04;;;;;;;9.20;3.20;;;6.90;1.00;;;;;;5117495;27;20542;-68
2022/02/10 17:19:01;;;;;;;5.40;3.10;;;6.90;99.90;;;;;;5117033;27;20193;-68
2022/02/10 17:25:06;;;;;;;4.33;2.83;;;6.90;1.00;;;;;;5119530;27;20221;-68
2022/02/10 17:27:10;;;;;;;8.07;2.87;;;6.90;1.00;;;;;;5122551;27;20527;-68
2022/02/10 17:29:55;;;;;;;5.37;2.90;;;6.90;1.00;;;;;;5120784;27;20299;-68
2022/02/10 17:32:31;;;;;;;7.33;2.93;;;6.90;1.00;;;;;;5118457;27;20200;-68
2022/02/10 17:46:15;;;;;;;5.83;3.37;;;6.90;99.90;;;;;;5115031;27;20275;-68
2022/02/10 17:51:32;;;;;;;6.60;4.00;;;6.90;1.00;;;;;;5119257;27;20211;-68
2022/02/10 17:54:02;;;;;;;5.93;3.70;;;6.80;1.00;;;;;;5119768;27;20730;-68
2022/02/10 17:56:29;;;;;;;7.50;3.60;;;6.80;1.00;;;;;;5119574;27;20201;-68
2022/02/10 17:58:57;;;;;;;4.83;3.57;;;6.70;1.00;;;;;;5124384;27;20631;-68
2022/02/10 18:01:26;;;;;;;7.00;3.33;;;6.70;99.90;;;;;;5116135;28;20271;-68
2022/02/10 18:03:53;;;;;;;7.30;3.60;;;6.70;99.90;;;;;;5120705;28;20192;-68
2022/02/10 18:06:23;;;;;;;7.53;3.63;;;6.70;99.90;;;;;;5116828;27;20197;-68
2022/02/10 18:09:08;;;;;;;6.30;3.67;;;6.70;99.90;;;;;;5119923;27;20203;-69
2022/02/10 18:14:27;;;;;;;10.90;3.83;;;6.70;99.90;;;;;;5112675;28;20188;-68
2022/02/10 18:16:59;;;;;;;7.77;4.03;;;6.60;99.90;;;;;;5115877;28;20211;-68
2022/02/10 18:19:30;;;;;;;6.03;3.67;;;6.60;99.90;;;;;;5117146;27;20675;-68
2022/02/10 18:22:27;;;;;;;7.87;3.40;;;6.60;99.90;;;;;;5121784;27;20230;-68
2022/02/10 18:25:06;;;;;;;9.13;5.03;;;6.60;1.00;;;;;;5123249;27;20252;-68
2022/02/10 18:27:39;;;;;;;8.47;4.80;;;6.60;1.00;;;;;;5128116;27;20211;-68
2022/02/10 18:30:18;;;;;;;9.67;3.90;;;6.60;99.90;;;;;;5122668;27;20291;-68
2022/02/10 19:08:57;;;;;;;4.43;3.47;;;6.40;1.00;;;;;;5119079;27;20232;-68
2022/02/10 19:11:24;;;;;;;6.90;3.00;;;6.30;99.90;;;;;;5122618;27;20196;-68
2022/02/10 19:13:53;;;;;;;6.67;3.37;;;6.30;1.00;;;;;;5119316;27;20254;-68
2022/02/10 19:16:22;;;;;;;4.90;3.17;;;6.30;1.00;;;;;;5122206;27;20208;-68
2022/02/10 19:18:50;;;;;;;3.87;2.50;;;6.30;1.00;;;;;;5121422;27;20201;-68
2022/02/10 19:21:18;;;;;;;9.40;3.00;;;6.30;1.00;;;;;;5119059;27;20257;-68
2022/02/10 19:23:45;;;;;;;4.97;3.30;;;6.30;99.90;;;;;;5123835;27;20200;-69
2022/02/10 19:26:13;;;;;;;6.53;2.90;;;6.30;1.00;;;;;;5128991;27;20603;-68
2022/02/10 19:28:40;;;;;;;5.33;3.23;;;6.30;1.00;;;;;;5122048;27;20237;-68
2022/02/10 19:31:09;;;;;;;10.37;4.53;;;6.20;93.50;;;;;;5120695;27;20209;-68
2022/02/10 19:33:36;;;;;;;10.33;4.17;;;6.20;99.90;;;;;;5121264;27;20208;-68
2022/02/10 19:36:03;;;;;;;7.90;4.43;;;6.20;1.00;;;;;;5125336;27;20204;-68
2022/02/10 19:38:32;;;;;;;7.13;4.20;;;6.20;1.00;;;;;;5115109;27;20216;-68
2022/02/10 19:40:59;;;;;;;6.50;4.20;;;6.20;99.90;;;;;;5118928;27;20266;-68
2022/02/10 19:43:27;;;;;;;5.60;3.00;;;6.20;62.00;;;;;;5119920;27;20200;-68
2022/02/10 19:45:54;;;;;;;4.80;2.63;;;6.10;1.00;;;;;;5123702;27;20212;-68
2022/02/10 19:48:22;;;;;;;4.13;2.40;;;6.10;1.00;;;;;;5120848;27;20533;-68
2022/02/10 19:50:51;;;;;;;5.43;2.67;;;6.00;1.00;;;;;;5119951;27;20218;-68
2022/02/10 19:53:20;;;;;;;4.50;2.50;;;6.00;1.00;;;;;;5121648;27;20213;-68
2022/02/10 19:55:51;;;;;;;3.70;2.40;;;6.00;99.90;;;;;;5127256;27;20209;-67
2022/02/10 19:58:21;;;;;;;2.67;1.87;;;6.00;99.90;;;;;;5126623;27;20228;-67
2022/02/10 20:00:52;;;;;;;4.23;1.97;;;5.90;1.00;;;;;;5121701;27;20293;-68
2022/02/10 20:03:21;;;;;;;2.27;1.90;;;5.90;1.00;;;;;;5121057;27;20292;-67
2022/02/10 20:05:51;;;;;;;3.43;1.97;;;5.90;1.00;;;;;;5119235;27;20513;-68
2022/02/10 20:08:20;;;;;;;4.43;2.33;;;5.90;1.00;;;;;;5122296;27;20209;-68
2022/02/10 20:10:53;;;;;;;4.80;2.33;;;5.80;99.90;;;;;;5115791;27;20192;-68
2022/02/10 20:13:20;;;;;;;3.80;2.73;;;5.80;1.00;;;;;;5121179;27;20208;-67
2022/02/10 20:15:50;;;;;;;7.00;3.63;;;5.80;1.00;;;;;;5119095;27;20193;-67
2022/02/10 20:18:18;;;;;;;5.10;3.60;;;5.80;58.10;;;;;;5135016;27;20201;-79
2022/02/10 20:20:47;;;;;;;5.80;3.57;;;5.80;99.90;;;;;;5136975;27;20232;-79
2022/02/10 20:23:59;;;;;;;5.83;3.70;;;5.80;99.90;;;;;;5136252;27;20208;-80
2022/02/10 20:26:28;;;;;;;5.90;4.03;;;5.70;1.00;;;;;;5136093;27;20185;-80
2022/02/10 20:29:18;;;;;;;7.53;4.30;;;5.70;1.00;;;;;;5136294;27;20261;-81
2022/02/10 20:31:45;;;;;;;5.90;3.90;;;5.70;1.00;;;;;;5135932;27;20582;-80
2022/02/10 20:34:15;;;;;;;6.17;3.50;;;5.60;1.00;;;;;;5136176;27;20211;-80
2022/02/10 20:36:42;;;;;;;3.67;3.17;;;5.60;1.00;;;;;;5136204;27;20546;-81
2022/02/10 20:39:34;;;;;;;6.10;3.30;;;5.60;1.00;;;;;;5136294;27;20579;-80
2022/02/10 20:42:05;;;;;;;5.43;3.57;;;5.60;1.00;;;;;;5135914;27;20584;-80
2022/02/10 20:44:53;;;;;;;5.43;3.57;;;5.50;1.00;;;;;;5135185;27;20703;-80
2022/02/10 20:47:23;;;;;;;4.00;3.13;;;5.50;1.00;;;;;;5136373;27;20223;-80
2022/02/10 20:49:50;;;;;;;3.70;3.20;;;5.50;1.00;;;;;;5136110;27;20204;-80
2022/02/10 20:53:09;;;;;;;4.30;2.90;;;5.40;1.00;;;;;;5136055;27;20587;-80
2022/02/10 20:55:36;;;;;;;4.37;2.63;;;5.40;1.00;;;;;;5135932;27;20176;-81
2022/02/10 20:58:04;;;;;;;4.10;2.87;;;5.40;1.00;;;;;;5135660;27;20177;-80
2022/02/10 21:00:32;;;;;;;3.90;3.30;;;5.40;1.00;;;;;;5134554;27;20208;-79
2022/02/10 21:03:00;;;;;;;4.83;2.87;;;5.40;1.00;;;;;;5138907;27;20290;-80
2022/02/10 21:05:33;;;;;;;3.73;3.00;;;5.40;1.00;;;;;;5136379;27;20196;-80
2022/02/10 21:08:08;;;;;;;4.47;2.90;;;5.40;1.00;;;;;;5131472;27;20208;-79
2022/02/10 21:10:37;;;;;;;4.20;2.93;;;5.30;1.00;;;;;;5131269;27;20239;-79
2022/02/10 21:13:07;;;;;;;4.07;2.70;;;5.30;1.00;;;;;;5127898;27;20207;-79
2022/02/10 21:15:40;;;;;;;2.60;2.40;;;5.30;1.00;;;;;;5116340;27;20204;-79
2022/02/10 21:18:08;;;;;;;3.40;2.80;;;5.30;1.00;;;;;;5112602;28;20205;-79
2022/02/10 21:20:37;;;;;;;5.90;3.00;;;5.20;1.00;;;;;;5126398;27;20208;-80
2022/02/10 21:23:14;;;;;;;3.23;2.60;;;5.20;1.00;;;;;;5122696;27;20635;-78
2022/02/10 21:25:42;;;;;;;5.47;3.20;;;5.20;1.00;;;;;;5113009;28;20205;-79
2022/02/10 21:28:18;;;;;;;6.03;3.30;;;5.20;1.00;;;;;;5112359;28;20201;-79
2022/02/10 21:30:49;;;;;;;5.70;3.60;;;5.20;1.00;;;;;;5114879;27;20715;-79
2022/02/10 21:33:24;;;;;;;4.87;3.20;;;5.20;1.00;;;;;;5112212;28;20576;-79
2022/02/10 21:36:44;;;;;;;7.00;3.83;;;5.20;1.00;;;;;;5112970;28;20200;-79
2022/02/10 21:39:26;;;;;;;3.67;2.93;;;5.20;1.00;;;;;;5116022;27;20197;-79
2022/02/10 21:55:41;;;;;;;7.93;3.67;;;5.20;1.00;;;;;;5133755;27;20202;-79
2022/02/10 22:04:03;;;;;;;7.83;4.47;;;5.30;1.00;;;;;;5116878;28;20184;-79
2022/02/10 22:07:06;;;;;;;8.57;5.00;;;5.30;1.00;;;;;;5133392;28;20291;-79
2022/02/10 22:09:39;;;;;;;10.43;5.30;;;5.30;1.00;;;;;;5115289;28;20608;-79
2022/02/10 22:16:18;;;;;;;9.47;5.20;;;5.30;1.00;;;;;;5113941;28;20180;-80
2022/02/10 22:20:42;;;;;;;8.50;4.57;;;5.30;1.00;;;;;;5129650;28;20223;-79
2022/02/10 22:23:16;;;;;;;5.90;3.33;;;5.30;1.00;;;;;;5132528;28;20204;-78
2022/02/10 22:25:44;;;;;;;4.90;2.83;;;5.20;1.00;;;;;;5094397;28;20192;-80
2022/02/10 22:28:24;;;;;;;3.23;2.60;;;5.20;1.00;;;;;;5125134;28;20193;-79
2022/02/10 22:31:05;;;;;;;3.87;2.57;;;5.10;99.90;;;;;;5132414;28;20200;-78
2022/02/10 22:33:46;;;;;;;3.30;2.37;;;5.20;99.90;;;;;;5113233;28;20200;-80
2022/02/10 22:36:16;;;;;;;3.03;1.63;;;5.00;1.00;;;;;;5106698;28;20281;-78
2022/02/10 22:38:44;;;;;;;2.60;1.70;;;5.10;1.00;;;;;;5123119;28;20253;-79
2022/02/10 22:41:12;;;;;;;1.70;1.30;;;5.10;1.00;;;;;;5132411;28;20220;-78
2022/02/10 22:43:43;;;;;;;2.23;1.20;;;5.00;99.90;;;;;;5129251;28;20568;-79
2022/02/10 22:46:11;;;;;;;2.40;1.03;;;5.10;99.90;;;;;;5115519;28;20254;-79
2022/02/10 22:48:41;;;;;;;2.10;1.30;;;5.00;1.00;;;;;;5130810;28;20257;-78
2022/02/10 22:51:09;;;;;;;1.73;0.90;;;5.00;1.00;;;;;;5112114;28;20233;-79
2022/02/10 22:53:44;;;;;;;2.97;0.90;;;5.00;1.00;;;;;;5112130;28;20201;-79
2022/02/10 22:56:14;;;;;;;0.73;0.73;;;5.00;1.00;;;;;;5113086;28;20237;-78
2022/02/10 22:58:41;;;;;;;1.30;0.90;;;5.00;1.00;;;;;;5124626;28;20237;-78
2022/02/10 23:01:10;;;;;;;2.70;1.17;;;5.00;1.00;;;;;;5131678;28;20559;-78
2022/02/10 23:03:40;;;;;;;1.60;1.30;;;5.00;1.00;;;;;;5126104;28;20185;-80
2022/02/10 23:06:09;;;;;;;1.23;1.10;;;5.00;1.00;;;;;;5128395;27;20216;-80
2022/02/10 23:08:36;;;;;;;4.57;1.77;;;4.90;70.20;;;;;;5134518;27;20415;-79
2022/02/10 23:11:04;;;;;;;2.47;1.57;;;5.00;99.90;;;;;;5135163;27;20253;-78
2022/02/10 23:13:34;;;;;;;4.23;1.83;;;4.90;99.90;;;;;;5134293;27;20204;-78
2022/02/10 23:16:04;;;;;;;2.67;1.60;;;4.90;1.00;;;;;;5132620;27;20200;-79
2022/02/10 23:18:32;;;;;;;3.17;1.90;;;4.90;1.00;;;;;;5118565;27;20189;-78
2022/02/10 23:21:02;;;;;;;3.90;2.00;;;4.90;1.00;;;;;;5124478;27;20197;-78
2022/02/10 23:23:31;;;;;;;2.37;2.17;;;4.90;1.00;;;;;;5126555;27;20647;-79
2022/02/10 23:25:59;;;;;;;4.77;2.17;;;5.00;1.00;;;;;;5142732;27;20244;-78
2022/02/10 23:28:30;;;;;;;3.67;2.10;;;4.90;1.00;;;;;;5121133;27;20643;-79
2022/02/10 23:30:59;;;;;;;3.37;1.73;;;4.90;89.60;;;;;;5115493;27;20257;-80
2022/02/10 23:33:27;;;;;;;2.27;1.90;;;4.90;1.00;;;;;;5114852;27;20250;-79
2022/02/10 23:38:45;;;;;;;2.43;2.13;;;4.80;99.90;;;;;;5113949;27;20185;-79
2022/02/10 23:41:46;;;;;;;3.57;2.23;;;4.80;99.90;;;;;;5114268;28;20534;-73
2022/02/10 23:44:15;;;;;;;4.27;2.57;;;4.80;1.00;;;;;;5115784;27;20200;-73
2022/02/10 23:46:44;;;;;;;7.87;2.80;;;4.80;1.00;;;;;;5109684;27;20207;-73
2022/02/10 23:49:14;;;;;;;7.63;3.60;;;4.90;25.60;;;;;;5129642;27;20293;-73
2022/02/10 23:51:47;;;;;;;6.13;3.30;;;4.90;99.90;;;;;;5118985;27;20204;-73
2022/02/10 23:54:16;;;;;;;7.17;3.57;;;4.90;99.90;;;;;;5116804;27;20742;-73
2022/02/10 23:56:48;;;;;;;7.23;3.73;;;4.90;99.90;;;;;;5124969;27;20261;-73
2022/02/10 23:59:22;;;;;;;7.37;3.80;;;4.90;1.00;;;;;;5119999;27;20662;-73
